createdAt,value
2023-03-30T00:00:08.128Z,1.8
2023-03-30T00:05:09.090Z,1.8
2023-03-30T00:10:08.201Z,1.8
2023-03-30T00:15:08.225Z,1.8
2023-03-30T00:20:08.303Z,1.5
2023-03-30T00:25:08.333Z,1.5
2023-03-30T00:30:08.383Z,1.9
2023-03-30T00:35:08.430Z,2.5
2023-03-30T00:40:08.456Z,3.4
2023-03-30T00:45:08.468Z,3.4
2023-03-30T00:50:08.480Z,3.1
2023-03-30T00:55:08.562Z,3.1
2023-03-30T01:00:08.655Z,2.3
2023-03-30T01:05:08.684Z,2.3
2023-03-30T01:10:08.752Z,2.5
2023-03-30T01:15:08.856Z,2.5
2023-03-30T01:20:08.924Z,1.5
2023-03-30T01:25:08.992Z,1.5
2023-03-30T01:30:07.972Z,2.3
2023-03-30T01:35:08.009Z,2.3
2023-03-30T01:40:08.110Z,0.0
2023-03-30T01:45:14.144Z,0.0
2023-03-30T01:50:08.131Z,1.1
2023-03-30T01:55:08.186Z,1.1
2023-03-30T02:00:08.241Z,2.2
2023-03-30T02:05:08.296Z,2.2
2023-03-30T02:10:08.348Z,2.2
2023-03-30T02:15:08.384Z,2.2
2023-03-30T02:20:08.419Z,1.7
2023-03-30T02:25:08.447Z,1.7
2023-03-30T02:30:08.508Z,1.7
2023-03-30T02:35:08.611Z,1.7
2023-03-30T02:40:08.685Z,1.7
2023-03-30T02:45:17.904Z,1.7
2023-03-30T02:50:07.985Z,2.6
2023-03-30T02:55:07.986Z,2.6
2023-03-30T03:00:07.995Z,1.4
2023-03-30T03:05:08.084Z,1.4
2023-03-30T03:10:08.111Z,0.0
2023-03-30T03:15:08.153Z,0.0
2023-03-30T03:20:08.218Z,1.1
2023-03-30T03:25:08.252Z,1.1
2023-03-30T03:30:08.358Z,2.1
2023-03-30T03:35:08.393Z,2.1
2023-03-30T03:40:08.399Z,2.8
2023-03-30T03:45:08.502Z,2.8
2023-03-30T03:50:08.551Z,2.2
2023-03-30T03:55:08.601Z,2.2
2023-03-30T04:00:08.640Z,3.3
2023-03-30T04:05:02.902Z,3.3
2023-03-30T04:10:02.208Z,2.8
2023-03-30T04:15:02.462Z,2.8
2023-03-30T04:20:03.769Z,3.6
2023-03-30T04:25:03.865Z,3.6
2023-03-30T04:30:03.119Z,3.0
2023-03-30T04:35:02.305Z,3.0
2023-03-30T04:40:02.582Z,1.9
2023-03-30T04:45:02.778Z,1.9
2023-03-30T04:50:03.117Z,2.1
2023-03-30T04:55:02.347Z,2.1
2023-03-30T05:00:02.547Z,2.8
2023-03-30T05:05:02.785Z,3.3
2023-03-30T05:10:02.936Z,2.3
2023-03-30T05:15:02.189Z,2.3
2023-03-30T05:20:02.444Z,2.1
2023-03-30T05:25:02.709Z,2.1
2023-03-30T05:30:02.921Z,3.2
2023-03-30T05:35:03.070Z,3.2
2023-03-30T05:40:02.220Z,1.7
2023-03-30T05:45:02.484Z,1.7
2023-03-30T05:50:02.593Z,2.3
2023-03-30T05:55:02.790Z,2.3
2023-03-30T06:00:02.954Z,2.2
2023-03-30T06:05:02.667Z,1.8
2023-03-30T06:10:02.937Z,2.5
2023-03-30T06:15:03.444Z,5.3
2023-03-30T06:20:02.669Z,4.1
2023-03-30T06:25:02.867Z,2.1
2023-03-30T06:30:03.301Z,2.1
2023-03-30T06:35:02.489Z,2.6
2023-03-30T06:40:02.803Z,2.4
2023-03-30T06:45:03.345Z,2.9
2023-03-30T06:50:02.487Z,3.1
2023-03-30T06:55:02.629Z,2.7
2023-03-30T07:00:02.879Z,3.0
2023-03-30T07:05:03.102Z,1.6
2023-03-30T07:10:02.565Z,3.3
2023-03-30T07:15:02.771Z,4.7
2023-03-30T07:20:02.980Z,3.7
2023-03-30T07:25:02.613Z,3.7
2023-03-30T07:30:13.850Z,3.5
2023-03-30T07:35:02.181Z,3.9
2023-03-30T07:40:02.311Z,3.4
2023-03-30T07:45:02.424Z,4.8
2023-03-30T07:50:03.030Z,4.6
2023-03-30T07:55:02.253Z,5.0
2023-03-30T08:00:02.563Z,4.6
2023-03-30T08:05:03.063Z,2.2
2023-03-30T08:10:02.400Z,1.3
2023-03-30T08:15:02.722Z,1.3
2023-03-30T08:20:02.894Z,2.3
2023-03-30T08:25:03.143Z,2.3
2023-03-30T08:30:02.377Z,4.7
2023-03-30T08:35:02.616Z,4.7
2023-03-30T08:40:02.797Z,4.5
2023-03-30T08:45:03.001Z,4.5
2023-03-30T08:50:02.180Z,7.2
2023-03-30T08:55:02.343Z,7.2
2023-03-30T09:00:02.617Z,6.3
2023-03-30T09:05:12.655Z,6.3
2023-03-30T09:10:02.922Z,5.7
2023-03-30T09:15:03.012Z,5.7
2023-03-30T09:20:02.299Z,3.8
2023-03-30T09:25:02.628Z,3.8
2023-03-30T09:30:02.845Z,4.9
2023-03-30T09:35:03.155Z,4.9
2023-03-30T09:40:02.450Z,3.8
2023-03-30T09:45:02.590Z,3.8
2023-03-30T09:50:02.744Z,3.7
2023-03-30T09:55:03.079Z,3.7
2023-03-30T10:00:02.284Z,4.1
2023-03-30T10:05:02.737Z,4.1
2023-03-30T10:10:03.457Z,4.7
2023-03-30T10:15:02.778Z,4.7
2023-03-30T10:20:13.304Z,3.8
2023-03-30T10:25:03.063Z,3.8
2023-03-30T10:30:02.306Z,4.0
2023-03-30T10:35:02.708Z,4.0
2023-03-30T10:40:03.040Z,3.6
2023-03-30T10:45:02.205Z,3.6
2023-03-30T10:50:05.255Z,2.0
2023-03-30T10:55:02.884Z,3.2
2023-03-30T11:00:03.287Z,3.9
2023-03-30T11:05:02.592Z,4.1
2023-03-30T11:10:02.941Z,4.1
2023-03-30T11:15:02.276Z,3.5
2023-03-30T11:20:02.523Z,3.5
2023-03-30T11:25:02.718Z,4.5
2023-03-30T11:30:02.958Z,4.5
2023-03-30T11:35:05.055Z,5.0
2023-03-30T11:40:02.292Z,3.6
2023-03-30T11:45:02.754Z,4.1
2023-03-30T11:50:02.932Z,3.1
2023-03-30T11:55:04.086Z,3.8
2023-03-30T12:00:02.686Z,2.5
2023-03-30T12:05:02.914Z,3.9
2023-03-30T12:10:04.057Z,3.1
2023-03-30T12:15:02.197Z,3.2
2023-03-30T12:20:02.487Z,3.4
2023-03-30T12:25:03.131Z,2.9
2023-03-30T12:30:03.663Z,4.5
2023-03-30T12:35:03.079Z,4.1
2023-03-30T12:40:02.376Z,3.9
2023-03-30T12:45:02.652Z,4.1
2023-03-30T12:50:11.809Z,5.8
2023-03-30T12:55:03.491Z,3.7
2023-03-30T13:00:02.694Z,3.9
2023-03-30T13:05:03.462Z,3.5
2023-03-30T13:10:04.845Z,4.7
2023-03-30T13:15:02.583Z,4.1
2023-03-30T13:20:02.740Z,4.1
2023-03-30T13:25:02.963Z,3.0
2023-03-30T13:30:05.645Z,3.0
2023-03-30T13:35:07.312Z,1.8
2023-03-30T13:40:03.114Z,1.6
2023-03-30T13:45:02.410Z,1.6
2023-03-30T13:50:02.606Z,2.4
2023-03-30T13:55:02.868Z,2.9
2023-03-30T14:00:03.069Z,1.7
2023-03-30T14:05:02.311Z,1.7
2023-03-30T14:10:02.495Z,2.2
2023-03-30T14:15:02.820Z,2.2
2023-03-30T14:20:03.710Z,2.4
2023-03-30T14:25:02.870Z,2.4
2023-03-30T14:30:03.134Z,2.9
2023-03-30T14:35:02.448Z,5.2
2023-03-30T14:40:02.631Z,4.4
2023-03-30T14:45:02.902Z,4.6
2023-03-30T14:50:03.116Z,2.1
2023-03-30T14:55:08.607Z,3.0
2023-03-30T15:00:02.237Z,3.1
2023-03-30T15:05:02.414Z,2.1
2023-03-30T15:10:02.521Z,3.0
2023-03-30T15:15:02.693Z,4.1
2023-03-30T15:20:03.107Z,1.6
2023-03-30T15:25:02.276Z,2.2
2023-03-30T15:30:02.870Z,0.0
2023-03-30T15:35:03.982Z,1.8
2023-03-30T15:40:02.337Z,2.7
2023-03-30T15:45:12.423Z,1.8
2023-03-30T15:50:02.601Z,1.5
2023-03-30T15:55:12.918Z,1.5
2023-03-30T16:00:03.109Z,0.8
2023-03-30T16:05:02.360Z,0.8
2023-03-30T16:10:02.514Z,1.4
2023-03-30T16:15:02.722Z,2.1
2023-03-30T16:20:05.581Z,4.5
2023-03-30T16:25:02.350Z,3.5
2023-03-30T16:30:02.489Z,2.0
2023-03-30T16:35:02.758Z,2.3
2023-03-30T16:40:03.009Z,3.4
2023-03-30T16:45:02.220Z,1.4
2023-03-30T16:50:02.375Z,1.1
2023-03-30T16:55:02.486Z,3.2
2023-03-30T17:00:02.624Z,1.5
2023-03-30T17:05:02.786Z,1.5
2023-03-30T17:10:03.023Z,1.7
2023-03-30T17:15:02.387Z,1.7
2023-03-30T17:20:02.600Z,1.3
2023-03-30T17:25:02.872Z,1.3
2023-03-30T17:30:03.408Z,2.9
2023-03-30T17:35:02.623Z,2.9
2023-03-30T17:40:02.794Z,2.4
2023-03-30T17:45:02.964Z,2.4
2023-03-30T17:50:02.236Z,2.1
2023-03-30T17:55:02.432Z,2.1
2023-03-30T18:00:02.643Z,1.8
2023-03-30T18:05:02.967Z,2.1
2023-03-30T18:10:02.259Z,3.5
2023-03-30T18:15:02.454Z,3.1
2023-03-30T18:20:02.744Z,3.2
2023-03-30T18:25:02.938Z,2.1
2023-03-30T18:30:02.137Z,1.2
2023-03-30T18:35:02.310Z,2.7
2023-03-30T18:40:02.594Z,2.8
2023-03-30T18:45:02.832Z,2.4
2023-03-30T18:50:03.021Z,1.8
2023-03-30T18:55:02.154Z,3.6
2023-03-30T19:00:02.417Z,2.9
2023-03-30T19:05:02.546Z,2.9
2023-03-30T19:10:02.750Z,2.3
2023-03-30T19:15:02.981Z,2.3
2023-03-30T19:20:02.242Z,2.1
2023-03-30T19:25:02.496Z,2.1
2023-03-30T19:30:02.749Z,2.2
2023-03-30T19:35:02.974Z,2.2
2023-03-30T19:40:02.230Z,3.3
2023-03-30T19:45:02.407Z,3.3
2023-03-30T19:50:02.581Z,2.5
2023-03-30T19:55:02.808Z,2.5
2023-03-30T20:00:02.919Z,2.4
2023-03-30T20:05:03.108Z,2.4
2023-03-30T20:10:02.308Z,2.5
2023-03-30T20:15:02.506Z,2.5
2023-03-30T20:20:02.724Z,3.2
2023-03-30T20:25:02.842Z,3.2
2023-03-30T20:30:03.027Z,3.4
2023-03-30T20:35:02.263Z,3.4
2023-03-30T20:40:03.936Z,2.3
2023-03-30T20:45:02.340Z,2.3
2023-03-30T20:50:02.541Z,1.9
2023-03-30T20:55:02.746Z,1.9
2023-03-30T21:00:02.997Z,3.4
2023-03-30T21:05:14.981Z,3.4
2023-03-30T21:10:08.054Z,2.9
2023-03-30T21:15:08.092Z,2.9
2023-03-30T21:20:08.147Z,3.3
2023-03-30T21:25:08.170Z,3.3
2023-03-30T21:30:08.240Z,3.6
2023-03-30T21:35:08.451Z,3.6
2023-03-30T21:40:08.480Z,3.2
2023-03-30T21:45:08.541Z,3.2
2023-03-30T21:50:08.627Z,3.6
2023-03-30T21:55:08.660Z,3.6
2023-03-30T22:00:08.729Z,3.2
2023-03-30T22:05:08.808Z,3.2
2023-03-30T22:10:08.869Z,2.9
2023-03-30T22:15:08.914Z,2.9
2023-03-30T22:20:08.960Z,3.2
2023-03-30T22:25:08.026Z,3.2
2023-03-30T22:30:08.095Z,2.7
2023-03-30T22:35:08.157Z,2.7
2023-03-30T22:40:08.188Z,2.5
2023-03-30T22:45:08.261Z,2.5
2023-03-30T22:50:08.288Z,3.1
2023-03-30T22:55:08.312Z,3.1
2023-03-30T23:01:12.444Z,2.6
2023-03-30T23:05:08.573Z,2.6
2023-03-30T23:10:08.837Z,4.1
2023-03-30T23:15:08.899Z,4.1
2023-03-30T23:20:08.942Z,1.8
2023-03-30T23:25:07.998Z,1.8
2023-03-30T23:30:08.029Z,2.5
2023-03-30T23:35:08.213Z,2.5
2023-03-30T23:40:08.225Z,2.0
2023-03-30T23:45:08.262Z,2.0
2023-03-30T23:50:08.271Z,2.1
2023-03-30T23:55:08.353Z,2.1
